Time;durP1;ratioP1;P1;durP2;ratioP2;P2;SDS_P1;SDS_P2;PMS_P1;PMS_P2;Temp;Humidity;BMP_temperature;BMP_pressure;BME280_temperature;BME280_humidity;BME280_pressure;Samples;Min_cycle;Max_cycle;Signal;HPM_P1;HPM_P2
2022/11/24 00:00:25;;;;;;;6.43;4.17;;;4.00;99.90;;;;;;4893843;28;22278;-79
2022/11/24 00:02:53;;;;;;;8.33;4.30;;;4.00;99.90;;;;;;4885644;28;20328;-77
2022/11/24 00:05:20;;;;;;;9.13;4.53;;;4.00;99.90;;;;;;4887056;28;20229;-77
2022/11/24 00:07:46;;;;;;;9.73;4.30;;;4.00;99.90;;;;;;4894556;28;20250;-78
2022/11/24 00:10:13;;;;;;;11.00;4.67;;;4.00;99.90;;;;;;4892898;28;20226;-78
2022/11/24 00:12:40;;;;;;;7.00;4.33;;;4.00;99.90;;;;;;4884961;28;20260;-78
2022/11/24 00:15:07;;;;;;;6.87;4.17;;;4.00;99.90;;;;;;4888345;28;20229;-78
2022/11/24 00:17:36;;;;;;;10.83;5.00;;;4.00;99.90;;;;;;4970254;28;20257;-78
2022/11/24 00:20:05;;;;;;;7.67;4.53;;;4.00;99.90;;;;;;5017334;28;20236;-78
2022/11/24 00:22:32;;;;;;;6.83;4.30;;;4.00;99.90;;;;;;4888598;28;20438;-81
2022/11/24 00:24:58;;;;;;;7.63;4.43;;;4.00;99.90;;;;;;4941613;28;20225;-78
2022/11/24 00:27:25;;;;;;;12.07;4.47;;;4.00;99.90;;;;;;4986917;28;20225;-78
2022/11/24 00:29:51;;;;;;;8.23;4.60;;;4.00;99.90;;;;;;4981830;28;20234;-78
2022/11/24 00:32:18;;;;;;;9.57;5.27;;;4.00;99.90;;;;;;5014007;28;20687;-78
2022/11/24 00:34:45;;;;;;;9.97;5.00;;;3.90;99.90;;;;;;4972310;28;20255;-78
2022/11/24 00:37:16;;;;;;;7.50;4.73;;;3.90;99.90;;;;;;4951757;28;20256;-78
2022/11/24 00:39:42;;;;;;;8.17;4.83;;;3.90;99.90;;;;;;4909660;28;20262;-78
2022/11/24 00:42:09;;;;;;;10.83;5.07;;;3.90;99.90;;;;;;4903108;28;20225;-77
2022/11/24 00:44:36;;;;;;;11.03;5.40;;;3.90;99.90;;;;;;4883885;28;20225;-77
2022/11/24 00:47:02;;;;;;;12.20;5.83;;;3.90;99.90;;;;;;4976639;28;20217;-77
2022/11/24 00:49:29;;;;;;;8.77;5.07;;;3.80;99.90;;;;;;4919253;28;20229;-78
2022/11/24 00:51:56;;;;;;;10.57;5.60;;;3.80;99.90;;;;;;4977954;28;20600;-78
2022/11/24 00:54:27;;;;;;;17.30;5.97;;;3.80;99.90;;;;;;4996345;28;20292;-78
2022/11/24 00:56:53;;;;;;;8.27;5.13;;;3.80;99.90;;;;;;4968283;28;20605;-78
2022/11/24 00:59:20;;;;;;;7.73;5.00;;;3.80;99.90;;;;;;4919096;28;20793;-79
2022/11/24 01:01:47;;;;;;;10.23;5.10;;;3.70;99.90;;;;;;4904310;28;20773;-79
2022/11/24 01:04:14;;;;;;;9.77;5.10;;;3.70;99.90;;;;;;4893516;28;20312;-79
2022/11/24 01:06:41;;;;;;;11.67;5.07;;;3.70;99.90;;;;;;4899451;28;20245;-79
2022/11/24 01:09:07;;;;;;;11.33;5.10;;;3.70;99.90;;;;;;4888602;28;20231;-79
2022/11/24 01:14:16;;;;;;;6.77;5.00;;;3.70;99.90;;;;;;4959088;28;20214;-78
2022/11/24 01:16:43;;;;;;;14.30;5.57;;;3.70;99.90;;;;;;4961831;28;20229;-79
2022/11/24 01:19:10;;;;;;;16.23;4.60;;;3.70;99.90;;;;;;4992737;28;20319;-78
2022/11/24 01:21:37;;;;;;;7.50;4.60;;;3.70;99.90;;;;;;4952336;28;20240;-78
2022/11/24 01:24:04;;;;;;;7.67;4.77;;;3.70;99.90;;;;;;4980564;28;21863;-78
2022/11/24 01:26:30;;;;;;;16.37;5.20;;;3.70;99.90;;;;;;4997742;28;20372;-78
2022/11/24 01:28:59;;;;;;;25.07;5.50;;;3.80;99.90;;;;;;4984215;28;20806;-78
2022/11/24 01:31:26;;;;;;;11.20;4.90;;;3.70;99.90;;;;;;4910402;28;20237;-78
2022/11/24 01:33:53;;;;;;;8.70;4.70;;;3.70;99.90;;;;;;4904962;28;20248;-79
2022/11/24 01:36:21;;;;;;;8.77;4.73;;;3.70;99.90;;;;;;4989674;28;20241;-79
2022/11/24 01:38:48;;;;;;;11.50;4.83;;;3.80;99.90;;;;;;4950326;28;20227;-79
2022/11/24 01:41:16;;;;;;;11.00;4.50;;;3.80;99.90;;;;;;4949289;28;20329;-79
2022/11/24 01:43:45;;;;;;;11.33;4.80;;;3.80;99.90;;;;;;4888910;28;20236;-79
2022/11/24 01:46:19;;;;;;;10.10;5.17;;;3.80;99.90;;;;;;4906096;28;20227;-81
2022/11/24 01:48:51;;;;;;;14.10;5.23;;;3.80;99.90;;;;;;4936681;28;20228;-81
2022/11/24 01:51:22;;;;;;;7.90;4.70;;;3.80;99.90;;;;;;5008943;28;20248;-81
2022/11/24 01:53:53;;;;;;;12.00;5.53;;;3.80;99.90;;;;;;4972992;28;20221;-81
2022/11/24 01:56:20;;;;;;;10.57;4.77;;;3.80;99.90;;;;;;4958636;28;20253;-81
2022/11/24 01:58:49;;;;;;;8.53;4.97;;;3.80;99.90;;;;;;4999180;28;20780;-81
2022/11/24 02:01:17;;;;;;;8.23;5.50;;;3.80;99.90;;;;;;4969144;28;20221;-80
2022/11/24 02:03:46;;;;;;;10.60;5.30;;;3.80;99.90;;;;;;4976985;28;20226;-81
2022/11/24 02:06:17;;;;;;;9.03;5.93;;;3.80;99.90;;;;;;4955267;28;20256;-81
2022/11/24 02:08:49;;;;;;;8.47;4.67;;;3.80;99.90;;;;;;4972289;28;20691;-81
2022/11/24 02:11:16;;;;;;;9.83;5.43;;;3.90;99.90;;;;;;4961464;28;20247;-81
2022/11/24 02:13:45;;;;;;;11.30;5.43;;;3.90;99.90;;;;;;4974892;28;20820;-80
2022/11/24 02:16:12;;;;;;;11.03;4.90;;;3.90;99.90;;;;;;4916895;28;20253;-81
2022/11/24 02:18:42;;;;;;;12.60;5.43;;;3.90;99.90;;;;;;4966479;28;20232;-81
2022/11/24 02:21:10;;;;;;;8.47;4.93;;;3.90;99.90;;;;;;4999453;28;20229;-80
2022/11/24 02:23:43;;;;;;;11.03;5.23;;;4.00;99.90;;;;;;5000798;28;20279;-81
2022/11/24 02:26:17;;;;;;;9.07;4.97;;;4.00;99.90;;;;;;4955826;28;20225;-80
2022/11/24 02:28:46;;;;;;;10.03;5.30;;;4.00;99.90;;;;;;4957868;28;20231;-80
2022/11/24 02:31:13;;;;;;;7.40;4.90;;;4.00;99.90;;;;;;4996213;28;20235;-81
2022/11/24 02:33:41;;;;;;;10.50;4.77;;;4.10;99.90;;;;;;4903622;28;20239;-81
2022/11/24 02:36:08;;;;;;;9.43;5.20;;;4.00;99.90;;;;;;4948258;28;20312;-81
2022/11/24 02:38:35;;;;;;;9.90;4.70;;;4.00;99.90;;;;;;4927423;28;20719;-81
2022/11/24 02:41:06;;;;;;;9.53;5.27;;;4.00;99.90;;;;;;5000210;28;20244;-81
2022/11/24 02:43:36;;;;;;;7.27;4.60;;;4.00;99.90;;;;;;4883250;28;20230;-80
2022/11/24 02:46:05;;;;;;;10.20;5.20;;;4.00;99.90;;;;;;4947802;28;20259;-80
2022/11/24 02:48:32;;;;;;;14.73;6.17;;;4.00;99.90;;;;;;4954808;28;20221;-80
2022/11/24 02:50:59;;;;;;;8.70;5.00;;;4.00;99.90;;;;;;4948368;28;20300;-81
2022/11/24 02:53:25;;;;;;;8.77;4.67;;;4.00;99.90;;;;;;4901589;28;20236;-81
2022/11/24 02:55:52;;;;;;;10.03;5.07;;;4.00;99.90;;;;;;4934722;28;20234;-81
2022/11/24 02:58:19;;;;;;;9.53;4.80;;;4.00;99.90;;;;;;4915190;28;20237;-81
2022/11/24 03:00:46;;;;;;;9.47;5.20;;;4.00;99.90;;;;;;4910676;28;20291;-81
2022/11/24 03:03:14;;;;;;;12.13;5.00;;;4.00;99.90;;;;;;4891330;28;20291;-81
2022/11/24 03:05:41;;;;;;;11.07;5.10;;;4.00;99.90;;;;;;4885181;28;20261;-81
2022/11/24 03:08:07;;;;;;;10.43;4.70;;;4.00;99.90;;;;;;4907252;28;20228;-81
2022/11/24 03:10:34;;;;;;;12.20;5.37;;;4.00;99.90;;;;;;4885019;28;20240;-79
2022/11/24 03:13:01;;;;;;;10.77;5.57;;;4.00;99.90;;;;;;4904500;28;20313;-78
2022/11/24 03:15:28;;;;;;;10.83;5.20;;;3.90;99.90;;;;;;4904667;28;20225;-78
2022/11/24 03:17:55;;;;;;;11.20;4.87;;;3.90;99.90;;;;;;4900481;28;20225;-79
2022/11/24 03:20:23;;;;;;;8.47;4.40;;;3.90;99.90;;;;;;4932621;28;20214;-79
2022/11/24 03:22:50;;;;;;;10.63;5.43;;;3.80;99.90;;;;;;4908362;28;20224;-79
2022/11/24 03:25:17;;;;;;;12.27;5.03;;;3.80;99.90;;;;;;4946319;28;20233;-78
2022/11/24 03:27:45;;;;;;;7.03;5.13;;;3.70;99.90;;;;;;4969880;28;20866;-79
2022/11/24 03:30:13;;;;;;;13.83;5.73;;;3.70;99.90;;;;;;4956954;28;20967;-78
2022/11/24 03:32:40;;;;;;;9.20;5.13;;;3.70;99.90;;;;;;4979177;28;20327;-79
2022/11/24 03:35:08;;;;;;;11.77;5.77;;;3.70;99.90;;;;;;4908009;28;20229;-78
2022/11/24 03:37:36;;;;;;;8.90;5.63;;;3.60;99.90;;;;;;4965632;28;20783;-78
2022/11/24 03:40:04;;;;;;;10.03;5.20;;;3.60;99.90;;;;;;5005079;28;20218;-78
2022/11/24 03:42:30;;;;;;;10.90;6.07;;;3.60;99.90;;;;;;4988641;28;20743;-78
2022/11/24 03:44:57;;;;;;;7.10;5.33;;;3.60;99.90;;;;;;4944138;28;20235;-78
2022/11/24 03:47:24;;;;;;;7.07;4.77;;;3.50;99.90;;;;;;4951665;28;20354;-79
2022/11/24 03:49:50;;;;;;;12.13;5.90;;;3.50;99.90;;;;;;4978714;28;20287;-78
2022/11/24 03:52:17;;;;;;;13.43;5.60;;;3.50;99.90;;;;;;4961067;28;20247;-78
2022/11/24 03:54:46;;;;;;;12.93;5.70;;;3.50;99.90;;;;;;4928573;28;20229;-78
2022/11/24 03:57:13;;;;;;;8.50;4.90;;;3.50;99.90;;;;;;4904624;28;20227;-78
2022/11/24 03:59:40;;;;;;;14.50;5.83;;;3.50;99.90;;;;;;4968202;28;20225;-78
2022/11/24 04:02:06;;;;;;;10.77;5.67;;;3.50;99.90;;;;;;5003419;28;21957;-78
2022/11/24 04:04:33;;;;;;;13.50;5.93;;;3.50;99.90;;;;;;4998934;28;20245;-81
2022/11/24 04:07:00;;;;;;;11.13;5.53;;;3.60;99.90;;;;;;4964445;28;20250;-81
2022/11/24 04:09:26;;;;;;;8.23;5.50;;;3.60;99.90;;;;;;4992503;28;20279;-81
2022/11/24 04:14:41;;;;;;;13.53;5.60;;;3.70;99.90;;;;;;4936280;28;20239;-81
2022/11/24 04:17:08;;;;;;;10.87;5.53;;;3.70;99.90;;;;;;4918650;28;20232;-81
2022/11/24 04:19:37;;;;;;;9.90;5.50;;;3.70;99.90;;;;;;4981640;28;20232;-81
2022/11/24 04:22:05;;;;;;;11.37;6.07;;;3.80;99.90;;;;;;4953859;28;20801;-82
2022/11/24 04:24:32;;;;;;;9.73;5.87;;;3.80;99.90;;;;;;4993500;28;20229;-82
2022/11/24 04:27:00;;;;;;;13.47;5.80;;;3.80;99.90;;;;;;4971324;28;20232;-81
2022/11/24 04:29:27;;;;;;;11.23;5.17;;;3.90;99.90;;;;;;4997903;28;20664;-81
2022/11/24 04:31:53;;;;;;;10.17;5.90;;;3.90;99.90;;;;;;4942420;28;20791;-81
2022/11/24 04:34:20;;;;;;;11.73;5.47;;;4.00;99.90;;;;;;4991637;28;20225;-80
2022/11/24 04:36:47;;;;;;;11.87;5.33;;;4.00;99.90;;;;;;4967864;28;20275;-83
2022/11/24 04:39:13;;;;;;;10.43;5.30;;;4.00;99.90;;;;;;4904556;28;20225;-83
2022/11/24 04:41:40;;;;;;;7.97;5.27;;;4.00;99.90;;;;;;4917269;28;21030;-83
2022/11/24 04:44:08;;;;;;;12.43;5.63;;;4.00;99.90;;;;;;4941661;28;20237;-85
2022/11/24 04:46:35;;;;;;;10.37;5.30;;;4.10;99.90;;;;;;4963167;28;20306;-83
2022/11/24 04:49:02;;;;;;;10.03;5.50;;;4.10;99.90;;;;;;4979262;28;20295;-83
2022/11/24 04:51:28;;;;;;;11.77;4.97;;;4.10;99.90;;;;;;4932625;28;20329;-83
2022/11/24 04:53:55;;;;;;;8.87;4.83;;;4.20;99.90;;;;;;4996094;28;20303;-83
2022/11/24 04:56:22;;;;;;;10.40;5.83;;;4.20;99.90;;;;;;5000581;28;20233;-83
2022/11/24 04:58:49;;;;;;;9.43;5.13;;;4.20;99.90;;;;;;4972693;28;20244;-85
2022/11/24 05:01:17;;;;;;;11.37;4.90;;;4.30;99.90;;;;;;4901404;28;20328;-84
2022/11/24 05:03:44;;;;;;;9.57;5.43;;;4.30;99.90;;;;;;4895847;28;20253;-83
2022/11/24 05:06:11;;;;;;;10.87;5.53;;;4.30;99.90;;;;;;4882072;28;20230;-84
2022/11/24 05:08:37;;;;;;;15.27;5.60;;;4.30;99.90;;;;;;4891554;28;20787;-84
2022/11/24 05:11:05;;;;;;;11.63;5.27;;;4.40;99.90;;;;;;4901724;28;20230;-83
2022/11/24 05:13:31;;;;;;;11.40;5.27;;;4.40;99.90;;;;;;4895400;28;20230;-83
2022/11/24 05:16:00;;;;;;;12.90;6.07;;;4.40;99.90;;;;;;4891114;28;20226;-84
2022/11/24 05:18:28;;;;;;;9.10;5.07;;;4.50;99.90;;;;;;4879996;28;20240;-84
2022/11/24 05:20:55;;;;;;;9.57;5.10;;;4.40;99.90;;;;;;4887808;28;20230;-83
2022/11/24 05:23:22;;;;;;;10.17;5.37;;;4.50;99.90;;;;;;4903014;28;20250;-80
2022/11/24 05:25:48;;;;;;;11.73;5.23;;;4.50;99.90;;;;;;4914954;28;20233;-80
2022/11/24 05:28:16;;;;;;;19.30;5.53;;;4.50;99.90;;;;;;4889647;28;20214;-80
2022/11/24 05:30:43;;;;;;;11.77;5.23;;;4.50;99.90;;;;;;4891717;28;20322;-83
2022/11/24 05:33:14;;;;;;;40.03;6.73;;;4.50;99.90;;;;;;4888367;28;20235;-83
2022/11/24 05:35:43;;;;;;;15.10;5.00;;;4.50;99.90;;;;;;4903738;28;20227;-82
2022/11/24 05:38:09;;;;;;;31.07;5.80;;;4.60;99.90;;;;;;4887614;28;20293;-81
2022/11/24 05:40:36;;;;;;;17.80;5.23;;;4.60;99.90;;;;;;4890849;28;20230;-80
2022/11/24 05:43:03;;;;;;;19.27;5.73;;;4.60;99.90;;;;;;4888343;28;20891;-83
2022/11/24 05:45:30;;;;;;;13.97;5.33;;;4.60;99.90;;;;;;4948882;28;20257;-83
2022/11/24 05:48:05;;;;;;;10.17;4.97;;;4.60;99.90;;;;;;4917813;28;20229;-82
2022/11/24 05:50:32;;;;;;;9.43;5.00;;;4.60;99.90;;;;;;4986630;28;20237;-82
2022/11/24 05:53:03;;;;;;;10.97;5.10;;;4.60;99.90;;;;;;4946004;28;20230;-83
2022/11/24 05:55:30;;;;;;;10.93;5.60;;;4.70;99.90;;;;;;5003800;28;20912;-82
2022/11/24 05:58:00;;;;;;;18.27;5.67;;;4.70;99.90;;;;;;4974532;28;20680;-82
2022/11/24 06:00:27;;;;;;;7.93;4.77;;;4.70;99.90;;;;;;4930608;28;20731;-82
2022/11/24 06:02:54;;;;;;;13.03;4.90;;;4.70;99.90;;;;;;4962351;28;20263;-82
2022/11/24 06:05:21;;;;;;;13.43;5.37;;;4.80;99.90;;;;;;4989762;28;20226;-83
2022/11/24 06:07:47;;;;;;;12.53;5.80;;;4.80;99.90;;;;;;4917851;28;20229;-82
2022/11/24 06:10:16;;;;;;;9.07;5.23;;;4.80;99.90;;;;;;4920645;28;20738;-85
2022/11/24 06:12:43;;;;;;;10.23;5.03;;;4.80;99.90;;;;;;4963721;28;20706;-81
2022/11/24 06:15:11;;;;;;;18.10;5.70;;;4.80;99.90;;;;;;4995048;28;20313;-83
2022/11/24 06:17:38;;;;;;;8.63;5.10;;;4.80;99.90;;;;;;4964723;28;20234;-84
2022/11/24 06:20:06;;;;;;;9.40;5.00;;;4.90;99.90;;;;;;4973664;28;20271;-83
2022/11/24 06:22:33;;;;;;;12.90;5.33;;;4.90;99.90;;;;;;4970588;28;20226;-84
2022/11/24 06:25:02;;;;;;;8.47;5.00;;;4.90;99.90;;;;;;4998179;28;20231;-83
2022/11/24 06:27:30;;;;;;;12.80;5.40;;;4.90;99.90;;;;;;4939552;28;20234;-84
2022/11/24 06:29:56;;;;;;;13.70;5.67;;;4.90;99.90;;;;;;5004722;28;20325;-83
2022/11/24 06:32:24;;;;;;;12.20;5.40;;;4.90;99.90;;;;;;4973837;28;20261;-83
2022/11/24 06:34:50;;;;;;;11.77;5.70;;;4.90;99.90;;;;;;5001804;28;20229;-84
2022/11/24 06:37:17;;;;;;;14.97;5.90;;;5.00;99.90;;;;;;4985902;28;20230;-82
2022/11/24 06:39:43;;;;;;;14.67;7.83;;;5.00;99.90;;;;;;4925990;28;20330;-81
2022/11/24 06:42:10;;;;;;;10.87;6.50;;;5.00;99.90;;;;;;4948021;28;21004;-82
2022/11/24 06:44:38;;;;;;;12.37;6.23;;;5.00;99.90;;;;;;4908824;28;20317;-82
2022/11/24 06:47:05;;;;;;;12.50;6.07;;;5.00;99.90;;;;;;4898177;28;20222;-82
2022/11/24 06:49:32;;;;;;;14.73;6.10;;;5.10;99.90;;;;;;4923156;28;20234;-82
2022/11/24 06:51:58;;;;;;;12.20;6.80;;;5.10;99.90;;;;;;4933064;28;20277;-82
2022/11/24 06:54:25;;;;;;;15.73;8.80;;;5.10;99.90;;;;;;4910856;28;20228;-82
2022/11/24 06:56:56;;;;;;;17.00;8.47;;;5.10;99.90;;;;;;4919989;28;20230;-82
2022/11/24 06:59:23;;;;;;;16.27;8.63;;;5.10;99.90;;;;;;4939848;28;20720;-83
2022/11/24 07:01:51;;;;;;;16.33;10.50;;;5.10;99.90;;;;;;4906937;28;20677;-79
2022/11/24 07:04:18;;;;;;;12.80;5.93;;;5.10;99.90;;;;;;4896827;28;20274;-80
2022/11/24 07:06:45;;;;;;;9.77;5.20;;;5.10;99.90;;;;;;4907875;28;20241;-80
2022/11/24 07:09:13;;;;;;;12.17;6.33;;;5.10;99.90;;;;;;4920411;28;20237;-79
2022/11/24 07:11:41;;;;;;;16.73;7.87;;;5.10;99.90;;;;;;4952330;28;20320;-79
2022/11/24 07:14:08;;;;;;;18.80;8.53;;;5.10;99.90;;;;;;4909237;28;20572;-79
2022/11/24 07:16:37;;;;;;;12.13;6.20;;;5.00;99.90;;;;;;4903856;28;20235;-80
2022/11/24 07:19:05;;;;;;;13.70;6.80;;;5.00;99.90;;;;;;4902362;28;20232;-82
2022/11/24 07:21:31;;;;;;;15.83;9.07;;;5.00;99.90;;;;;;4903612;28;20314;-82
2022/11/24 07:23:58;;;;;;;15.87;7.47;;;5.00;99.90;;;;;;4902572;28;20468;-82
2022/11/24 07:26:25;;;;;;;11.43;6.50;;;5.00;99.90;;;;;;4932721;28;20223;-82
2022/11/24 07:28:52;;;;;;;14.23;6.13;;;5.00;99.90;;;;;;4946863;28;20241;-82
2022/11/24 07:31:23;;;;;;;15.73;5.60;;;5.00;99.90;;;;;;4955074;28;20847;-82
2022/11/24 07:33:50;;;;;;;11.97;6.07;;;5.00;99.90;;;;;;4936602;28;20226;-82
2022/11/24 07:36:20;;;;;;;11.17;6.17;;;5.00;99.90;;;;;;4959481;28;20603;-81
2022/11/24 07:38:47;;;;;;;12.97;6.47;;;5.00;99.90;;;;;;5001522;28;20222;-83
2022/11/24 07:41:15;;;;;;;14.43;6.73;;;5.00;99.90;;;;;;4986542;28;20317;-81
2022/11/24 07:43:42;;;;;;;14.40;6.30;;;5.00;99.90;;;;;;4968816;28;20318;-82
2022/11/24 07:46:12;;;;;;;14.13;6.63;;;5.00;99.90;;;;;;4996436;28;20237;-82
2022/11/24 07:48:39;;;;;;;15.53;6.77;;;5.00;99.90;;;;;;4948844;28;20243;-82
2022/11/24 07:51:06;;;;;;;12.40;7.57;;;5.00;99.90;;;;;;5000525;28;20254;-81
2022/11/24 07:53:35;;;;;;;12.47;6.77;;;5.00;99.90;;;;;;4939863;28;20332;-82
2022/11/24 07:56:05;;;;;;;9.90;5.83;;;5.00;99.90;;;;;;4979792;28;20342;-81
2022/11/24 07:58:33;;;;;;;14.00;6.10;;;5.00;99.90;;;;;;4961257;28;21026;-80
2022/11/24 08:01:00;;;;;;;11.57;6.10;;;5.00;99.90;;;;;;4965739;28;20856;-79
2022/11/24 08:03:27;;;;;;;13.53;6.23;;;5.10;99.90;;;;;;4917892;28;20840;-80
2022/11/24 08:05:55;;;;;;;10.23;6.10;;;5.10;99.90;;;;;;5009115;28;20713;-80
2022/11/24 08:08:21;;;;;;;13.80;6.67;;;5.10;99.90;;;;;;4965658;28;20232;-79
2022/11/24 08:10:49;;;;;;;9.03;6.00;;;5.20;99.90;;;;;;5006189;28;20227;-80
2022/11/24 08:13:16;;;;;;;17.23;6.83;;;5.30;99.90;;;;;;4958738;28;20749;-79
2022/11/24 08:15:43;;;;;;;9.23;5.83;;;5.30;99.90;;;;;;4947823;28;20266;-76
2022/11/24 08:18:10;;;;;;;12.53;5.57;;;5.40;99.90;;;;;;4908469;28;20302;-76
2022/11/24 08:20:37;;;;;;;15.10;6.37;;;5.50;99.90;;;;;;4927645;28;20320;-76
2022/11/24 08:23:04;;;;;;;12.53;6.17;;;5.60;99.90;;;;;;4904385;28;20255;-76
2022/11/24 08:25:31;;;;;;;11.63;6.03;;;5.60;99.90;;;;;;4956299;28;20223;-76
2022/11/24 08:27:59;;;;;;;13.60;6.00;;;5.60;99.90;;;;;;4991386;28;20575;-76
2022/11/24 08:30:26;;;;;;;12.30;6.23;;;5.70;99.90;;;;;;4959495;28;20231;-76
2022/11/24 08:32:52;;;;;;;15.40;6.67;;;5.60;99.90;;;;;;4981490;28;20255;-76
2022/11/24 08:35:19;;;;;;;11.50;6.13;;;5.60;99.90;;;;;;4966014;28;20695;-76
2022/11/24 08:37:46;;;;;;;10.33;6.23;;;5.60;99.90;;;;;;4913526;28;20238;-76
2022/11/24 08:40:13;;;;;;;13.43;6.70;;;5.60;99.90;;;;;;4919159;28;20251;-76
2022/11/24 08:42:39;;;;;;;14.00;7.00;;;5.60;99.90;;;;;;4896709;28;20323;-76
2022/11/24 08:45:09;;;;;;;15.60;6.10;;;5.60;99.90;;;;;;4881675;28;20313;-76
2022/11/24 08:47:35;;;;;;;10.93;5.70;;;5.70;99.90;;;;;;4905778;28;20784;-76
2022/11/24 08:50:02;;;;;;;16.10;6.40;;;5.70;99.90;;;;;;4951322;28;20221;-76
2022/11/24 08:52:29;;;;;;;12.47;5.57;;;5.70;99.90;;;;;;4937820;28;20238;-76
2022/11/24 08:54:56;;;;;;;10.77;6.03;;;5.70;99.90;;;;;;4936549;28;20951;-77
2022/11/24 08:57:23;;;;;;;14.47;5.60;;;5.80;99.90;;;;;;4963252;28;20313;-76
2022/11/24 08:59:53;;;;;;;16.37;5.73;;;5.80;99.90;;;;;;4973693;28;20236;-75
2022/11/24 09:02:28;;;;;;;17.73;6.23;;;5.80;99.90;;;;;;4950176;28;20264;-76
2022/11/24 09:04:55;;;;;;;14.30;5.40;;;5.90;99.90;;;;;;4947252;28;20224;-76
2022/11/24 09:07:22;;;;;;;11.40;5.60;;;5.90;99.90;;;;;;4961747;28;20220;-77
2022/11/24 09:09:49;;;;;;;10.10;5.17;;;5.90;99.90;;;;;;4981283;28;20231;-77
2022/11/24 09:12:15;;;;;;;13.90;5.30;;;6.00;99.90;;;;;;4956259;28;20239;-76
2022/11/24 09:14:42;;;;;;;12.23;5.13;;;6.10;99.90;;;;;;4959169;28;20232;-76
2022/11/24 09:17:08;;;;;;;10.50;5.07;;;6.10;99.90;;;;;;4918334;28;20220;-76
2022/11/24 09:19:36;;;;;;;13.27;4.80;;;6.20;99.90;;;;;;4993990;28;20225;-76
2022/11/24 09:22:03;;;;;;;11.60;5.53;;;6.20;99.90;;;;;;5007779;28;20316;-76
2022/11/24 09:24:30;;;;;;;16.33;5.30;;;6.30;99.90;;;;;;4893431;28;20235;-76
2022/11/24 09:26:57;;;;;;;13.10;5.37;;;6.40;99.90;;;;;;4980581;28;20232;-76
2022/11/24 09:29:24;;;;;;;16.03;5.23;;;6.50;99.90;;;;;;5007705;28;20320;-77
2022/11/24 09:31:50;;;;;;;9.73;5.13;;;6.60;99.90;;;;;;5006542;28;20225;-76
2022/11/24 09:34:17;;;;;;;13.40;5.30;;;6.70;99.90;;;;;;5007303;28;20321;-76
2022/11/24 09:36:45;;;;;;;16.70;8.10;;;6.70;99.90;;;;;;4958952;28;20438;-76
2022/11/24 09:39:12;;;;;;;14.20;7.73;;;6.80;99.90;;;;;;4893994;28;20222;-76
2022/11/24 09:41:57;;;;;;;14.10;5.67;;;6.80;99.90;;;;;;4933007;28;20963;-75
2022/11/24 09:44:48;;;;;;;10.77;5.10;;;6.80;99.90;;;;;;4928495;28;20709;-76
2022/11/24 09:47:23;;;;;;;11.67;5.50;;;6.90;99.90;;;;;;4953319;28;20802;-76
2022/11/24 09:49:56;;;;;;;14.87;5.53;;;6.90;99.90;;;;;;4884237;28;20748;-76
2022/11/24 09:52:38;;;;;;;11.27;4.77;;;7.00;99.90;;;;;;4900990;28;20236;-76
2022/11/24 09:55:16;;;;;;;11.30;4.80;;;7.10;99.90;;;;;;4958234;28;20256;-78
2022/11/24 09:57:43;;;;;;;13.17;5.27;;;7.10;99.90;;;;;;5006361;28;20221;-77
2022/11/24 10:00:13;;;;;;;9.40;4.13;;;7.20;99.90;;;;;;5012473;28;20697;-76
2022/11/24 10:02:40;;;;;;;14.43;5.00;;;7.20;99.90;;;;;;5004930;28;20238;-81
2022/11/24 10:05:07;;;;;;;10.57;5.00;;;7.30;99.90;;;;;;5003611;28;20576;-78
2022/11/24 10:07:43;;;;;;;14.63;5.13;;;7.30;99.90;;;;;;4976515;28;20223;-79
2022/11/24 10:10:16;;;;;;;11.33;5.00;;;7.30;99.90;;;;;;4917838;28;20223;-80
2022/11/24 10:12:56;;;;;;;12.40;5.00;;;7.40;99.90;;;;;;4958766;28;20308;-79
2022/11/24 10:15:37;;;;;;;10.87;5.30;;;7.40;99.90;;;;;;4991046;28;20223;-79
2022/11/24 10:18:36;;;;;;;11.87;4.73;;;7.40;99.90;;;;;;4943907;28;20224;-77
2022/11/24 10:21:24;;;;;;;12.17;5.30;;;7.50;99.90;;;;;;4922020;28;20227;-78
2022/11/24 10:24:12;;;;;;;14.60;5.27;;;7.60;99.90;;;;;;4976343;28;20231;-78
2022/11/24 10:26:40;;;;;;;12.47;5.43;;;7.60;99.90;;;;;;4887739;28;20233;-82
2022/11/24 10:29:19;;;;;;;13.67;4.87;;;7.60;99.90;;;;;;4887986;28;20233;-80
2022/11/24 10:31:47;;;;;;;15.03;6.00;;;7.70;99.90;;;;;;4970719;28;20241;-78
2022/11/24 10:34:17;;;;;;;14.83;5.10;;;7.70;99.90;;;;;;4948909;28;20243;-78
2022/11/24 10:36:48;;;;;;;12.23;4.40;;;7.70;99.90;;;;;;4984704;28;20234;-78
2022/11/24 10:39:20;;;;;;;10.83;4.77;;;7.80;99.90;;;;;;4954752;28;20238;-79
2022/11/24 10:41:52;;;;;;;14.40;5.07;;;7.80;99.90;;;;;;4932966;28;20323;-78
2022/11/24 10:44:19;;;;;;;14.70;4.70;;;7.90;99.90;;;;;;4947311;28;20225;-78
2022/11/24 10:46:45;;;;;;;14.80;6.00;;;7.90;99.90;;;;;;4981596;28;20247;-80
2022/11/24 10:49:19;;;;;;;13.57;4.80;;;7.90;99.90;;;;;;4974007;28;20234;-78
2022/11/24 10:52:06;;;;;;;13.90;5.50;;;7.90;99.90;;;;;;4974423;28;20234;-78
2022/11/24 10:54:35;;;;;;;8.73;4.30;;;7.90;99.90;;;;;;4993354;28;20645;-77
2022/11/24 10:57:02;;;;;;;13.33;5.97;;;8.00;99.90;;;;;;5003727;28;20692;-80
2022/11/24 10:59:32;;;;;;;12.73;4.40;;;8.00;99.90;;;;;;4883525;28;20244;-78
2022/11/24 11:01:59;;;;;;;14.77;5.60;;;7.90;99.90;;;;;;4968776;28;20220;-77
2022/11/24 11:04:28;;;;;;;11.23;4.70;;;7.90;99.90;;;;;;4962074;28;20237;-78
2022/11/24 11:07:08;;;;;;;14.80;5.57;;;7.90;99.90;;;;;;4946533;28;20260;-80
2022/11/24 11:09:36;;;;;;;13.80;4.43;;;7.90;99.90;;;;;;5003438;28;20708;-81
2022/11/24 11:12:10;;;;;;;17.10;5.63;;;8.00;99.90;;;;;;5001951;28;20262;-80
2022/11/24 11:14:37;;;;;;;16.70;4.90;;;8.00;99.90;;;;;;4961753;28;20229;-77
2022/11/24 11:17:32;;;;;;;11.93;5.07;;;8.00;99.90;;;;;;4945848;28;20300;-78
2022/11/24 11:20:04;;;;;;;11.10;4.30;;;8.10;99.90;;;;;;5004242;28;20218;-78
2022/11/24 11:22:32;;;;;;;14.80;5.27;;;8.10;99.90;;;;;;5003189;28;20342;-79
2022/11/24 11:25:07;;;;;;;11.03;4.70;;;8.20;99.90;;;;;;4997356;28;20219;-78
2022/11/24 11:27:34;;;;;;;10.57;4.80;;;8.20;99.90;;;;;;4980320;28;20236;-78
2022/11/24 11:30:18;;;;;;;11.07;5.20;;;8.30;99.90;;;;;;4943186;28;20330;-79
2022/11/24 11:32:53;;;;;;;11.03;5.33;;;8.30;99.90;;;;;;4940806;28;20227;-80
2022/11/24 11:35:19;;;;;;;11.37;4.60;;;8.40;99.90;;;;;;5001371;28;20219;-82
2022/11/24 11:37:48;;;;;;;11.47;5.20;;;8.40;99.90;;;;;;4937012;28;20783;-80
2022/11/24 11:40:21;;;;;;;16.97;4.80;;;8.50;99.90;;;;;;4906128;28;20223;-77
2022/11/24 11:42:52;;;;;;;11.27;4.40;;;8.50;99.90;;;;;;4893711;28;20238;-82
2022/11/24 11:45:23;;;;;;;13.33;5.17;;;8.60;99.90;;;;;;4900032;28;20329;-78
2022/11/24 11:47:53;;;;;;;13.87;4.27;;;8.60;99.90;;;;;;4993735;28;20233;-76
2022/11/24 11:50:24;;;;;;;12.33;4.63;;;8.70;99.90;;;;;;4953803;28;20227;-78
2022/11/24 11:53:10;;;;;;;11.47;4.43;;;8.70;99.90;;;;;;4930448;28;20593;-78
2022/11/24 11:55:57;;;;;;;15.37;5.40;;;8.80;99.90;;;;;;4963614;28;20276;-79
2022/11/24 11:58:51;;;;;;;11.10;4.53;;;8.80;99.90;;;;;;4959867;28;20236;-79
2022/11/24 12:01:33;;;;;;;12.40;5.00;;;8.80;99.90;;;;;;4935203;28;20336;-78
2022/11/24 12:04:15;;;;;;;13.93;4.63;;;8.90;99.90;;;;;;5002760;28;20286;-79
2022/11/24 12:07:01;;;;;;;13.03;4.57;;;8.90;99.90;;;;;;4972551;28;20230;-77
2022/11/24 12:09:49;;;;;;;18.23;5.40;;;8.90;99.90;;;;;;4910003;28;20702;-80
2022/11/24 12:12:50;;;;;;;14.67;4.70;;;8.90;99.90;;;;;;4922753;28;20224;-78
2022/11/24 12:15:22;;;;;;;17.40;5.23;;;8.90;99.90;;;;;;4921285;28;20235;-82
2022/11/24 12:17:54;;;;;;;17.87;5.10;;;8.90;99.90;;;;;;4963542;28;20534;-81
2022/11/24 12:20:37;;;;;;;16.43;5.17;;;8.90;99.90;;;;;;4948243;28;20222;-80
2022/11/24 12:23:13;;;;;;;17.20;5.77;;;8.90;99.90;;;;;;4903679;28;20640;-81
2022/11/24 12:25:45;;;;;;;14.83;5.47;;;8.90;99.90;;;;;;4911833;28;20651;-81
2022/11/24 12:28:31;;;;;;;13.73;4.80;;;8.90;99.90;;;;;;4919621;28;20238;-80
2022/11/24 12:31:05;;;;;;;16.37;5.40;;;8.90;99.90;;;;;;4920738;28;20224;-80
2022/11/24 12:34:16;;;;;;;16.23;5.90;;;8.90;99.90;;;;;;5005736;28;20830;-81
2022/11/24 12:37:10;;;;;;;14.37;5.13;;;9.00;99.90;;;;;;4991382;28;20231;-80
2022/11/24 12:39:45;;;;;;;15.40;5.53;;;8.90;99.90;;;;;;5004964;28;20307;-80
2022/11/24 12:42:20;;;;;;;16.73;6.00;;;9.00;99.90;;;;;;4932407;28;20825;-81
2022/11/24 12:45:14;;;;;;;16.90;5.60;;;9.00;99.90;;;;;;4964622;28;21024;-80
2022/11/24 12:48:03;;;;;;;13.03;4.57;;;8.90;99.90;;;;;;4979887;28;20233;-82
2022/11/24 12:50:35;;;;;;;18.67;5.67;;;9.00;99.90;;;;;;4942857;28;20232;-81
2022/11/24 12:53:05;;;;;;;17.27;4.97;;;9.00;99.90;;;;;;4945701;28;20230;-81
2022/11/24 12:55:33;;;;;;;17.50;4.70;;;9.00;99.90;;;;;;4954166;28;20234;-82
2022/11/24 12:58:09;;;;;;;20.50;5.30;;;9.00;99.90;;;;;;4985107;28;20228;-81
2022/11/24 13:00:47;;;;;;;22.40;5.10;;;9.10;99.90;;;;;;4971857;28;20235;-80
2022/11/24 13:03:30;;;;;;;13.60;4.27;;;9.10;99.90;;;;;;5004645;28;20233;-82
2022/11/24 13:06:02;;;;;;;12.43;5.27;;;9.10;99.90;;;;;;4931649;28;20237;-81